Terminal Aerodrome Forecast
Issued by NWS

Current Version | Previous Version | Text Only | Print | Product List | Glossary Off
Versions: 1 2 3 4 5 6 7 8 9 10 11 12 13 14 15 16 17 18 19 20 21 22 23 24 25

851
FTUS41 KILN 221136
TAFLUK
TAF
KLUK 221136Z 2212/2312 00000KT 2SM BR VCSH OVC022
      TEMPO 2212/2214 1SM -DZ BR OVC012
     FM221400 22005KT 5SM BR OVC015
     FM221800 22006KT P6SM BKN028
     FM222100 19005KT P6SM BKN035
     FM230100 19004KT P6SM BKN025
     FM230400 20004KT 4SM BR OVC015=

USA.gov is the U.S. government's official web portal to all federal, state and local government web resources and services.